Latest Coastal Weather Observations for Pirlangimpi (Garden Point)

IDD60701

Issued at 6:02 pm CST Tuesday 31 March 2015 (issued every 10 minutes, with the page automatically refreshed every 10 minutes)

About coastal observations | Map of coastal stations | Coastal observations for NT | Marine services | Other Formats
Station Details ID: 014142 Name: PIRLANGIMPI AIRPORT Lat: -11.40 Lon: 130.42 Height: 18.3 m
Data from the previous 72 hours. | See also: Recent months at Pirlangimpi (Garden Point)
Date/Time
CST
Temp

°C
Wind Pressure Rain
since 9am
mm
Weather Cloud Vis
km
Sea
Height
m
Swell
Dir
 
Speed
knots
Gust
knots
hPa Trend Height
m
Period
s
Dir
31/06:00pm 30.7 NE 4 8 1009.5 - 0.0 - - - - - - -
31/05:30pm 32.5 NE 4 9 1009.3 - 0.0 - - - - - - -
31/05:00pm 33.3 NE 5 8 1009.2 - 0.0 - - - - - - -
31/04:30pm 34.6 ENE 5 10 1008.9 - 0.0 - - - - - - -
31/04:00pm 34.0 NE 5 9 1008.8 - 0.0 - - - - - - -
31/03:30pm 34.7 ESE 5 8 1008.8 - 0.0 - - - - - - -
31/03:00pm 34.7 E 6 10 1009.0 - 0.0 - - - - - - -
31/02:30pm 35.1 ENE 5 8 1009.3 - 0.0 - - - - - - -
31/02:00pm 35.3 ENE 5 9 1009.7 - 0.0 - - - - - - -
31/01:30pm 34.6 NE 5 11 1010.1 - 0.0 - - - - - - -
31/01:00pm 33.9 E 6 9 1010.9 - 0.0 - - - - - - -
31/12:30pm 34.0 SE 4 9 1011.4 - 0.0 - - - - - - -
31/12:00pm 32.6 ESE 5 8 1011.9 - 0.0 - - - - - - -
31/11:30am 32.4 ESE 5 7 1012.2 - 0.0 - - - - - - -
31/11:00am 32.4 E 8 13 1012.6 - 0.0 - - - - - - -
31/10:30am 31.1 E 5 10 1012.9 - 0.0 - - - - - - -
31/10:00am 30.9 ESE 8 12 1013.0 - 0.0 - - - - - - -
31/09:30am 30.1 ESE 5 9 1013.2 - 0.0 - - - - - - -
31/09:00am 29.5 E 5 8 1013.1 - 0.0 - - - - - - -
31/08:30am 27.1 E 4 6 1012.8 - 0.0 - - - - - - -
31/08:00am 25.5 E 2 4 1012.7 - 0.0 - - - - - - -
31/07:30am 24.3 ENE 2 3 1012.3 - 0.0 - - - - - - -
31/07:00am 23.3 ENE 3 4 1012.0 - 0.0 - - - - - - -
31/06:30am 23.3 CALM 0 0 1011.7 - 0.0 - - - - - - -
31/06:00am 23.4 CALM 0 0 1011.7 - 0.0 - - - - - - -
31/05:30am 23.4 CALM 0 0 1011.3 - 0.0 - - - - - - -
31/05:00am 23.5 CALM 0 0 1011.0 - 0.0 - - - - - - -
31/04:30am 23.7 CALM 0 0 1010.8 - 0.0 - - - - - - -
31/04:00am 23.7 CALM 0 0 1010.8 - 0.0 - - - - - - -
31/03:30am 23.8 CALM 0 0 1010.8 - 0.0 - - - - - - -
31/03:00am 23.9 ENE 1 2 1010.8 - 0.0 - - - - - - -
31/02:30am 23.9 ENE 2 3 1011.0 - 0.0 - - - - - - -
31/02:00am 24.2 E 1 4 1011.3 - 0.0 - - - - - - -
31/01:30am 24.0 NE 1 2 1011.6 - 0.0 - - - - - - -
31/01:00am 24.1 NE 1 2 1012.0 - 0.0 - - - - - - -
31/12:30am 24.2 NE 2 3 1012.2 - 0.0 - - - - - - -
31/12:00am 24.4 ENE 1 2 1012.5 - 0.0 - - - - - - -
 
Date/Time
CST
Temp

°C
Wind Pressure Rain
since 9am
mm
Weather Cloud Vis
km
Sea
Height
m
Swell
Dir
 
Speed
knots
Gust
knots
hPa Trend Height
m
Period
s
Dir
30/11:30pm 24.7 ENE 2 3 1012.6 - 0.0 - - - - - - -
30/11:00pm 24.9 NE 4 5 1012.7 - 0.0 - - - - - - -
30/10:30pm 24.6 NE 3 5 1012.8 - 0.0 - - - - - - -
30/10:00pm 24.6 NE 2 3 1012.8 - 0.0 - - - - - - -
30/09:30pm 24.9 NE 2 3 1012.7 - 0.0 - - - - - - -
30/09:00pm 25.3 NE 1 2 1012.5 - 0.0 - - - - - - -
30/08:30pm 25.9 ENE 3 4 1012.2 - 0.0 - - - - - - -
30/08:00pm 26.4 ENE 3 4 1011.9 - 0.0 - - - - - - -
30/07:30pm 27.3 NE 4 7 1011.5 - 0.0 - - - - - - -
30/07:00pm 27.7 ENE 5 9 1011.3 - 0.0 - - - - - - -
30/06:30pm 28.2 E 3 5 1011.0 - 0.0 - - - - - - -
30/06:00pm 30.1 NE 7 11 1010.7 - 0.0 - - - - - - -
30/05:30pm 31.2 ENE 7 12 1010.6 - 0.0 - - - - - - -
30/05:00pm 32.1 ENE 6 11 1010.3 - 0.0 - - - - - - -
30/04:30pm 33.2 ENE 7 12 1010.1 - 0.0 - - - - - - -
30/04:00pm 33.4 NE 6 12 1009.9 - 0.0 - - - - - - -
30/03:30pm 33.7 NE 7 12 1009.8 - 0.0 - - - - - - -
30/03:00pm 34.0 ENE 6 9 1010.0 - 0.0 - - - - - - -
30/02:30pm 34.0 ENE 6 12 1010.2 - 0.0 - - - - - - -
30/02:00pm 34.9 E 6 10 1010.5 - 0.0 - - - - - - -
30/01:30pm 34.7 ENE 7 11 1010.6 - 0.0 - - - - - - -
30/01:00pm 33.7 NE 6 11 1010.9 - 0.0 - - - - - - -
30/12:30pm 33.1 ENE 6 10 1011.3 - 0.0 - - - - - - -
30/12:00pm 33.3 E 5 9 1011.7 - 0.0 - - - - - - -
30/11:30am 32.9 NE 5 10 1012.0 - 0.0 - - - - - - -
30/11:00am 32.2 ENE 6 11 1012.6 - 0.0 - - - - - - -
30/10:30am 31.9 E 7 11 1012.9 - 0.0 - - - - - - -
30/10:00am 31.4 ENE 7 11 1012.9 - 0.0 - - - - - - -
30/09:30am 30.5 ENE 6 11 1012.8 - 0.0 - - - - - - -
30/09:00am 29.2 ENE 5 9 1012.9 - 0.0 - - - - - - -
30/08:30am 27.1 E 4 7 1012.7 - 0.0 - - - - - - -
30/08:00am 26.1 E 4 5 1012.3 - 0.0 - - - - - - -
30/07:30am 24.8 E 3 4 1011.8 - 0.0 - - - - - - -
30/07:00am 24.1 ESE 3 4 1011.5 - 0.0 - - - - - - -
30/06:30am 24.2 E 3 4 1011.1 - 0.0 - - - - - - -
30/06:00am 24.6 ESE 2 3 1011.0 - 0.0 - - - - - - -
30/05:30am 24.9 ESE 3 4 1010.9 - 0.0 - - - - - - -
30/05:00am 25.0 SE 2 2 1010.8 - 0.0 - - - - - - -
30/04:30am 25.0 ESE 2 3 1010.6 - 0.0 - - - - - - -
30/04:00am 24.6 CALM 0 0 1010.6 - 0.0 - - - - - - -
30/03:30am 24.5 CALM 0 1 1010.7 - 0.0 - - - - - - -
30/03:00am 24.6 CALM 0 0 1011.0 - 0.0 - - - - - - -
30/02:30am 24.6 CALM 0 0 1011.1 - 0.0 - - - - - - -
30/02:00am 24.6 CALM 0 1 1011.2 - 0.0 - - - - - - -
30/01:30am 24.6 CALM 0 0 1011.5 - 0.0 - - - - - - -
30/01:00am 24.8 CALM 0 0 1011.9 - 0.0 - - - - - - -
30/12:30am 25.0 CALM 0 0 1012.2 - 0.0 - - - - - - -
30/12:00am 25.3 CALM 0 0 1012.6 - 0.0 - - - - - - -
 
Date/Time
CST
Temp

°C
Wind Pressure Rain
since 9am
mm
Weather Cloud Vis
km
Sea
Height
m
Swell
Dir
 
Speed
knots
Gust
knots
hPa Trend Height
m
Period
s
Dir
29/11:30pm 25.4 CALM 0 0 1012.7 - 0.0 - - - - - - -
29/11:00pm 25.6 CALM 0 0 1012.8 - 0.0 - - - - - - -
29/10:30pm 25.7 CALM 0 0 1013.0 - 0.0 - - - - - - -
29/10:00pm 25.9 CALM 0 0 1012.8 - 0.0 - - - - - - -
29/09:30pm 26.0 NE 1 2 1012.5 - 0.0 - - - - - - -
29/09:00pm 26.2 NNE 1 2 1012.5 - 0.0 - - - - - - -
29/08:30pm 26.5 NE 2 3 1012.2 - 0.0 - - - - - - -
29/08:00pm 26.7 NE 2 2 1011.9 - 0.0 - - - - - - -
29/07:30pm 27.1 NE 2 3 1011.6 - 0.0 - - - - - - -
29/07:00pm 28.0 NE 2 3 1011.3 - 0.0 - - - - - - -
29/06:30pm 29.2 ENE 5 7 1010.7 - 0.0 - - - - - - -
29/06:00pm 30.5 ENE 6 7 1010.3 - 0.0 - - - - - - -
29/05:30pm 32.1 ENE 5 7 1010.1 - 0.0 - - - - - - -
29/05:00pm 32.7 ENE 5 8 1010.0 - 0.0 - - - - - - -
29/04:30pm 33.3 ENE 7 11 1009.7 - 0.0 - - - - - - -
29/04:00pm 33.2 ENE 5 8 1009.6 - 0.0 - - - - - - -
29/03:30pm 34.0 ENE 6 9 1009.7 - 0.0 - - - - - - -
29/03:00pm 33.9 ENE 5 8 1009.9 - 0.0 - - - - - - -
29/02:30pm 34.0 E 5 8 1010.2 - 0.0 - - - - - - -
29/02:00pm 34.9 ENE 7 10 1010.4 - 0.0 - - - - - - -
29/01:30pm 34.2 ENE 6 12 1010.8 - 0.0 - - - - - - -
29/01:00pm 33.8 NE 3 8 1011.2 - 0.0 - - - - - - -
29/12:30pm 33.3 ESE 5 7 1011.7 - 0.0 - - - - - - -
29/12:00pm 32.2 SE 5 8 1012.4 - 0.0 - - - - - - -
29/11:30am 32.3 ESE 6 12 1012.8 - 0.0 - - - - - - -
29/11:00am 31.9 E 6 11 1013.2 - 0.0 - - - - - - -
29/10:30am 31.7 E 5 8 1013.4 - 0.0 - - - - - - -
29/10:00am 30.7 ESE 5 8 1013.3 - 0.0 - - - - - - -
29/09:30am 29.4 ESE 6 10 1013.3 - 0.0 - - - - - - -
29/09:00am 28.1 ESE 3 4 1013.0 - 0.6 - - - - - - -
29/08:30am 26.4 ESE 2 3 1012.7 - 0.6 - - - - - - -
29/08:00am 25.2 SE 1 2 1012.5 - 0.6 - - - - - - -
29/07:30am 24.6 ESE 2 3 1012.2 - 0.6 - - - - - - -
29/07:00am 23.8 E 2 3 1011.7 - 0.6 - - - - - - -
29/06:30am 23.8 ESE 2 2 1011.4 - 0.6 - - - - - - -
29/06:00am 23.5 ESE 2 2 1011.2 - 0.6 Recent precip. - - - - - -
29/05:30am 23.5 SE 1 2 1010.9 - 0.4 - - - - - - -
29/05:00am 23.7 SE 1 2 1010.7 - 0.4 - - - - - - -
29/04:30am 23.9 SE 2 3 1010.6 - 0.4 - - - - - - -
29/04:00am 23.8 SE 2 2 1010.8 - 0.4 - - - - - - -
29/03:30am 23.7 SE 1 2 1010.9 - 0.4 - - - - - - -
29/03:00am 23.6 CALM 0 0 1010.7 - 0.4 - - - - - - -
29/02:30am 23.7 CALM 0 0 1011.2 - 0.4 - - - - - - -
29/02:00am 23.9 CALM 0 0 1011.4 - 0.4 - - - - - - -
29/01:30am 23.9 CALM 0 1 1011.6 - 0.4 - - - - - - -
29/01:00am 23.8 ENE 1 2 1012.0 - 0.4 - - - - - - -
29/12:30am 23.7 CALM 0 0 1012.6 - 0.4 - - - - - - -
29/12:00am 24.3 CALM 0 0 1012.8 - 0.4 - - - - - - -
 
Date/Time
CST
Temp

°C
Wind Pressure Rain
since 9am
mm
Weather Cloud Vis
km
Sea
Height
m
Swell
Dir
 
Speed
knots
Gust
knots
hPa Trend Height
m
Period
s
Dir
28/11:30pm 25.0 CALM 0 0 1012.8 - 0.4 - - - - - - -
28/11:00pm 25.2 CALM 0 0 1012.9 - 0.4 - - - - - - -
28/10:30pm 25.2 CALM 0 0 1012.9 - 0.4 - - - - - - -
28/10:00pm 25.3 CALM 0 0 1012.6 - 0.4 - - - - - - -
28/09:30pm 25.3 CALM 0 0 1012.5 - 0.4 - - - - - - -
28/09:00pm 25.4 CALM 0 0 1012.4 - 0.4 Recent precip. - - - - - -
28/08:30pm 25.4 CALM 0 0 1012.3 - 0.2 - - - - - - -
28/08:00pm 25.9 CALM 0 1 1012.2 - 0.0 - - - - - - -
28/07:30pm 26.2 E 2 4 1011.9 - 0.0 - - - - - - -
28/07:00pm 26.5 ESE 3 5 1012.1 - 0.0 - - - - - - -
28/06:30pm 27.0 ESE 1 2 1011.4 - 0.0 - - - - - - -

Other Formats:

Comma delimited format used in spreadsheet applications
http://www.bom.gov.au/fwo/IDD60701/IDD60701.94119.axf

JavaScript Object Notation format (JSON) in row-major order
http://www.bom.gov.au/fwo/IDD60701/IDD60701.94119.json